createdAt,value
2023-04-27T00:02:07.033Z,5.60
2023-04-27T00:04:34.650Z,4.67
2023-04-27T00:07:02.407Z,4.90
2023-04-27T00:09:29.942Z,4.97
2023-04-27T00:11:57.466Z,5.03
2023-04-27T00:14:25.810Z,4.80
2023-04-27T00:16:53.402Z,5.70
2023-04-27T00:19:20.882Z,5.17
2023-04-27T00:21:48.459Z,5.33
2023-04-27T00:24:15.977Z,5.10
2023-04-27T00:26:43.507Z,5.03
2023-04-27T00:29:11.353Z,5.27
2023-04-27T00:31:38.807Z,6.13
2023-04-27T00:34:07.071Z,5.77
2023-04-27T00:36:34.658Z,5.20
2023-04-27T00:39:02.193Z,5.00
2023-04-27T00:41:29.717Z,6.07
2023-04-27T00:43:58.077Z,5.50
2023-04-27T00:46:25.722Z,7.00
2023-04-27T00:48:53.161Z,6.80
2023-04-27T00:51:20.741Z,6.10
2023-04-27T00:53:48.266Z,5.63
2023-04-27T00:56:15.800Z,5.23
2023-04-27T00:58:44.150Z,5.23
2023-04-27T01:01:11.706Z,5.67
2023-04-27T01:03:39.404Z,5.43
2023-04-27T01:06:06.878Z,5.60
2023-04-27T01:08:34.437Z,6.20
2023-04-27T01:11:02.708Z,5.30
2023-04-27T01:13:30.277Z,5.93
2023-04-27T01:15:57.813Z,5.90
2023-04-27T01:18:25.333Z,5.07
2023-04-27T01:20:53.669Z,5.80
2023-04-27T01:23:21.223Z,7.03
2023-04-27T01:25:49.503Z,5.90
2023-04-27T01:28:17.096Z,5.57
2023-04-27T01:30:44.606Z,6.67
2023-04-27T01:33:12.137Z,6.27
2023-04-27T01:35:40.067Z,6.00
2023-04-27T01:38:07.580Z,6.10
2023-04-27T01:40:35.899Z,5.70
2023-04-27T01:43:04.068Z,5.97
2023-04-27T01:45:31.584Z,6.13
2023-04-27T01:47:59.911Z,6.43
2023-04-27T01:50:27.478Z,6.10
2023-04-27T01:52:55.007Z,5.53
2023-04-27T01:55:22.535Z,6.20
2023-04-27T01:57:50.109Z,6.27
2023-04-27T02:00:18.451Z,6.20
2023-04-27T02:02:46.131Z,6.10
2023-04-27T02:05:13.632Z,7.20
2023-04-27T02:07:41.178Z,6.23
2023-04-27T02:10:08.800Z,6.90
2023-04-27T02:12:36.686Z,5.73
2023-04-27T02:15:05.072Z,7.37
2023-04-27T02:17:33.414Z,7.50
2023-04-27T02:20:00.952Z,6.57
2023-04-27T02:22:28.467Z,6.63
2023-04-27T02:24:56.771Z,6.43
2023-04-27T02:27:25.146Z,5.73
2023-04-27T02:29:52.698Z,6.47
2023-04-27T02:32:20.222Z,6.07
2023-04-27T02:34:48.585Z,6.37
2023-04-27T02:37:16.106Z,5.67
2023-04-27T02:39:43.634Z,7.65
2023-04-27T02:42:11.199Z,6.23
2023-04-27T02:44:38.722Z,6.70
2023-04-27T02:47:06.304Z,5.73
2023-04-27T02:49:34.853Z,5.70
2023-04-27T02:52:01.634Z,6.00
2023-04-27T02:54:29.169Z,6.20
2023-04-27T02:56:56.744Z,6.50
2023-04-27T02:59:25.051Z,6.13
2023-04-27T03:01:52.571Z,5.70
2023-04-27T03:04:21.464Z,6.37
2023-04-27T03:06:48.833Z,6.70
2023-04-27T03:09:16.650Z,6.80
2023-04-27T03:11:43.936Z,6.17
2023-04-27T03:14:12.250Z,7.62
2023-04-27T03:16:39.834Z,7.07
2023-04-27T03:19:07.888Z,5.97
2023-04-27T03:21:35.415Z,5.77
2023-04-27T03:24:02.950Z,6.10
2023-04-27T03:26:31.281Z,6.40
2023-04-27T03:28:58.831Z,6.17
2023-04-27T03:31:26.414Z,6.77
2023-04-27T03:33:54.273Z,6.10
2023-04-27T03:36:21.807Z,5.63
2023-04-27T03:38:49.337Z,6.37
2023-04-27T03:41:17.684Z,6.30
2023-04-27T03:43:45.218Z,6.93
2023-04-27T03:46:12.839Z,7.10
2023-04-27T03:48:41.137Z,6.77
2023-04-27T03:51:08.677Z,6.87
2023-04-27T03:53:36.990Z,7.33
2023-04-27T03:56:04.550Z,7.50
2023-04-27T03:58:32.117Z,7.23
2023-04-27T04:00:59.652Z,7.17
2023-04-27T04:03:28.891Z,7.17
2023-04-27T04:05:56.224Z,7.20
2023-04-27T04:08:23.754Z,8.73
2023-04-27T04:10:53.074Z,6.73
2023-04-27T04:13:20.596Z,6.90
2023-04-27T04:15:48.967Z,6.17
2023-04-27T04:18:16.491Z,6.77
2023-04-27T04:20:44.017Z,6.23
2023-04-27T04:23:11.568Z,6.83
2023-04-27T04:25:39.929Z,6.53
2023-04-27T04:28:08.232Z,6.53
2023-04-27T04:30:35.757Z,5.63
2023-04-27T04:33:04.161Z,6.50
2023-04-27T04:35:31.680Z,7.00
2023-04-27T04:37:59.201Z,8.00
2023-04-27T04:40:26.779Z,10.15
2023-04-27T04:42:54.320Z,8.57
2023-04-27T04:45:21.842Z,7.63
2023-04-27T04:47:50.212Z,6.87
2023-04-27T04:50:17.721Z,6.80
2023-04-27T04:52:45.275Z,8.55
2023-04-27T04:55:12.845Z,7.10
2023-04-27T04:57:40.377Z,7.27
2023-04-27T05:00:08.039Z,6.43
2023-04-27T05:02:35.745Z,6.87
2023-04-27T05:05:03.131Z,5.80
2023-04-27T05:07:31.436Z,5.87
2023-04-27T05:09:59.040Z,6.43
2023-04-27T05:12:26.606Z,6.30
2023-04-27T05:14:54.137Z,6.67
2023-04-27T05:17:21.822Z,8.10
2023-04-27T05:19:50.045Z,7.10
2023-04-27T05:22:17.576Z,6.50
2023-04-27T05:24:46.191Z,7.20
2023-04-27T05:27:13.712Z,7.20
2023-04-27T05:29:41.235Z,6.73
2023-04-27T05:32:08.958Z,7.53
2023-04-27T05:34:36.359Z,6.93
2023-04-27T05:37:03.868Z,6.40
2023-04-27T05:39:31.434Z,6.77
2023-04-27T05:41:58.965Z,7.43
2023-04-27T05:44:27.273Z,7.20
2023-04-27T05:46:54.855Z,6.93
2023-04-27T05:49:22.370Z,7.07
2023-04-27T05:51:50.683Z,7.47
2023-04-27T05:54:18.267Z,6.97
2023-04-27T05:56:45.783Z,7.23
2023-04-27T05:59:13.419Z,7.20
2023-04-27T06:01:41.682Z,7.17
2023-04-27T06:04:09.354Z,9.07
2023-04-27T06:06:36.744Z,8.90
2023-04-27T06:09:04.320Z,7.80
2023-04-27T06:11:31.857Z,6.77
2023-04-27T06:13:59.383Z,7.53
2023-04-27T06:16:27.106Z,7.17
2023-04-27T06:18:55.254Z,7.17
2023-04-27T06:21:22.783Z,6.60
2023-04-27T06:23:50.368Z,7.20
2023-04-27T06:26:17.886Z,7.17
2023-04-27T06:28:45.418Z,7.07
2023-04-27T06:31:13.097Z,8.13
2023-04-27T06:33:40.516Z,7.17
2023-04-27T06:36:08.111Z,6.77
2023-04-27T06:38:35.702Z,7.10
2023-04-27T06:41:03.994Z,6.57
2023-04-27T06:43:31.548Z,6.70
2023-04-27T06:46:00.269Z,6.50
2023-04-27T06:48:27.713Z,6.20
2023-04-27T06:50:55.198Z,6.97
2023-04-27T06:53:23.573Z,6.53
2023-04-27T06:55:51.882Z,6.70
2023-04-27T06:58:19.385Z,6.30
2023-04-27T07:00:47.336Z,6.70
2023-04-27T07:03:15.083Z,6.33
2023-04-27T07:05:42.409Z,6.20
2023-04-27T07:08:09.995Z,6.63
2023-04-27T07:10:37.524Z,6.33
2023-04-27T07:13:07.338Z,6.30
2023-04-27T07:15:32.650Z,6.47
2023-04-27T07:18:00.189Z,6.37
2023-04-27T07:20:28.442Z,7.37
2023-04-27T07:22:56.026Z,6.40
2023-04-27T07:25:23.542Z,6.23
2023-04-27T07:27:51.074Z,6.47
2023-04-27T07:30:19.441Z,6.90
2023-04-27T07:32:46.991Z,6.70
2023-04-27T07:35:14.509Z,5.90
2023-04-27T07:37:42.393Z,5.80
2023-04-27T07:40:09.988Z,5.37
2023-04-27T07:42:37.522Z,5.53
2023-04-27T07:45:05.883Z,5.67
2023-04-27T07:47:33.452Z,5.90
2023-04-27T07:50:00.971Z,6.07
2023-04-27T07:52:29.590Z,5.00
2023-04-27T07:54:57.117Z,5.80
2023-04-27T07:57:25.424Z,5.77
2023-04-27T07:59:53.778Z,5.90
2023-04-27T08:02:21.485Z,5.50
2023-04-27T08:04:49.951Z,5.30
2023-04-27T08:07:17.649Z,5.57
2023-04-27T08:09:45.563Z,5.07
2023-04-27T08:12:13.090Z,5.67
2023-04-27T08:14:41.504Z,4.97
2023-04-27T08:17:09.036Z,5.70
2023-04-27T08:19:36.555Z,4.90
2023-04-27T08:22:04.148Z,4.77
2023-04-27T08:24:31.692Z,5.37
2023-04-27T08:26:59.190Z,3.47
2023-04-27T08:29:28.810Z,4.13
2023-04-27T08:31:56.485Z,4.57
2023-04-27T08:34:21.868Z,5.73
2023-04-27T08:36:49.449Z,4.97
2023-04-27T08:39:16.986Z,5.40
2023-04-27T08:41:44.519Z,5.10
2023-04-27T08:44:12.848Z,4.57
2023-04-27T08:46:40.475Z,5.53
2023-04-27T08:49:08.069Z,5.03
2023-04-27T08:51:35.843Z,5.00
2023-04-27T08:54:03.385Z,5.00
2023-04-27T08:56:30.922Z,4.73
2023-04-27T08:58:59.543Z,3.90
2023-04-27T09:01:27.099Z,5.10
2023-04-27T09:04:00.749Z,5.03
2023-04-27T09:06:33.995Z,5.27
2023-04-27T09:09:02.235Z,4.63
2023-04-27T09:11:32.454Z,4.30
2023-04-27T09:14:00.010Z,4.63
2023-04-27T09:16:27.613Z,5.07
2023-04-27T09:18:55.859Z,4.73
2023-04-27T09:21:23.440Z,5.10
2023-04-27T09:23:50.986Z,4.63
2023-04-27T09:26:24.398Z,4.80
2023-04-27T09:28:52.002Z,4.30
2023-04-27T09:31:19.551Z,4.97
2023-04-27T09:33:47.058Z,5.80
2023-04-27T09:36:14.614Z,4.83
2023-04-27T09:38:42.166Z,4.67
2023-04-27T09:41:09.722Z,5.03
2023-04-27T09:43:37.277Z,5.07
2023-04-27T09:46:05.035Z,4.90
2023-04-27T09:48:33.103Z,4.53
2023-04-27T09:51:00.667Z,4.37
2023-04-27T09:53:36.827Z,4.20
2023-04-27T09:56:35.386Z,4.80
2023-04-27T09:59:36.379Z,4.47
2023-04-27T10:02:17.077Z,4.13
2023-04-27T10:05:05.501Z,4.67
2023-04-27T10:07:33.749Z,4.00
2023-04-27T10:10:03.758Z,4.20
2023-04-27T10:12:34.366Z,4.03
2023-04-27T10:15:11.607Z,4.53
2023-04-27T10:17:39.201Z,4.23
2023-04-27T10:20:09.613Z,4.03
2023-04-27T10:22:46.772Z,3.37
2023-04-27T10:25:14.297Z,3.73
2023-04-27T10:27:41.828Z,3.90
2023-04-27T10:30:09.423Z,3.60
2023-04-27T10:32:37.009Z,3.62
2023-04-27T10:35:04.481Z,4.10
2023-04-27T10:37:40.975Z,3.63
2023-04-27T10:40:08.599Z,3.40
2023-04-27T10:42:36.133Z,4.90
2023-04-27T10:45:03.708Z,3.90
2023-04-27T10:47:43.311Z,3.80
2023-04-27T10:50:13.718Z,3.70
2023-04-27T10:52:41.141Z,3.37
2023-04-27T10:55:18.358Z,3.83
2023-04-27T10:57:45.841Z,3.53
2023-04-27T11:00:16.228Z,4.30
2023-04-27T11:02:42.011Z,3.93
2023-04-27T11:05:18.213Z,3.77
2023-04-27T11:07:45.822Z,3.40
2023-04-27T11:10:15.814Z,3.10
2023-04-27T11:12:43.317Z,3.78
2023-04-27T11:15:10.894Z,3.33
2023-04-27T11:17:38.428Z,3.23
2023-04-27T11:20:06.187Z,3.17
2023-04-27T11:22:33.768Z,2.80
2023-04-27T11:25:01.295Z,2.87
2023-04-27T11:27:28.819Z,2.50
2023-04-27T11:29:56.399Z,3.63
2023-04-27T11:32:24.763Z,2.80
2023-04-27T11:34:53.667Z,3.40
2023-04-27T11:37:25.386Z,2.90
2023-04-27T11:39:52.914Z,3.40
2023-04-27T11:42:26.333Z,3.30
2023-04-27T11:44:59.700Z,2.83
2023-04-27T11:47:30.793Z,2.70
2023-04-27T11:49:58.299Z,3.00
2023-04-27T11:52:31.728Z,3.37
2023-04-27T11:54:59.264Z,3.30
2023-04-27T11:57:29.244Z,3.20
2023-04-27T11:59:56.797Z,3.23
2023-04-27T12:02:24.408Z,2.83
2023-04-27T12:04:52.131Z,3.47
2023-04-27T12:07:19.714Z,3.03
2023-04-27T12:09:47.244Z,2.90
2023-04-27T12:12:15.547Z,3.03
2023-04-27T12:14:43.418Z,3.03
2023-04-27T12:17:11.050Z,3.50
2023-04-27T12:19:38.598Z,3.73
2023-04-27T12:22:06.930Z,3.70
2023-04-27T12:24:34.474Z,3.33
2023-04-27T12:27:01.988Z,3.70
2023-04-27T12:29:29.571Z,3.53
2023-04-27T12:31:57.863Z,3.03
2023-04-27T12:34:25.407Z,2.87
2023-04-27T12:36:53.741Z,3.53
2023-04-27T12:39:21.274Z,3.20
2023-04-27T12:41:48.796Z,3.07
2023-04-27T12:44:16.659Z,3.10
2023-04-27T12:46:46.401Z,3.00
2023-04-27T12:49:11.473Z,2.73
2023-04-27T12:51:39.824Z,3.60
2023-04-27T12:54:07.372Z,3.20
2023-04-27T12:56:34.891Z,3.67
2023-04-27T12:59:02.458Z,2.73
2023-04-27T13:01:30.635Z,3.47
2023-04-27T13:04:01.838Z,3.20
2023-04-27T13:06:29.974Z,3.30
2023-04-27T13:08:57.499Z,3.27
2023-04-27T13:11:25.025Z,2.87
2023-04-27T13:13:54.088Z,2.70
2023-04-27T13:16:21.728Z,2.63
2023-04-27T13:18:49.141Z,2.80
2023-04-27T13:21:17.498Z,2.80
2023-04-27T13:23:45.021Z,2.90
2023-04-27T13:26:12.578Z,2.70
2023-04-27T13:28:40.434Z,2.23
2023-04-27T13:31:07.972Z,2.50
2023-04-27T13:33:35.506Z,2.40
2023-04-27T13:36:03.094Z,2.20
2023-04-27T13:38:30.629Z,2.87
2023-04-27T13:40:58.933Z,2.80
2023-04-27T13:43:26.500Z,3.17
2023-04-27T13:45:54.027Z,3.10
2023-04-27T13:48:22.328Z,3.03
2023-04-27T13:50:50.206Z,3.50
2023-04-27T13:53:17.740Z,3.40
2023-04-27T13:55:45.368Z,3.20
2023-04-27T13:58:12.938Z,3.20
2023-04-27T14:00:40.482Z,3.00
2023-04-27T14:03:08.114Z,3.20
2023-04-27T14:05:36.312Z,3.00
2023-04-27T14:08:03.844Z,3.03
2023-04-27T14:10:31.369Z,3.00
2023-04-27T14:12:59.738Z,2.70
2023-04-27T14:15:27.275Z,3.70
2023-04-27T14:17:54.838Z,2.90
2023-04-27T14:20:22.466Z,3.17
2023-04-27T14:22:50.728Z,3.13
2023-04-27T14:25:18.577Z,2.87
2023-04-27T14:27:47.514Z,3.07
2023-04-27T14:30:15.041Z,2.60
2023-04-27T14:32:42.652Z,2.67
2023-04-27T14:35:10.916Z,2.40
2023-04-27T14:37:38.436Z,2.30
2023-04-27T14:40:06.060Z,2.80
2023-04-27T14:42:34.198Z,2.90
2023-04-27T14:45:01.742Z,2.70
2023-04-27T14:47:29.384Z,2.43
2023-04-27T14:49:57.596Z,2.50
2023-04-27T14:52:25.142Z,2.43
2023-04-27T14:54:52.762Z,2.27
2023-04-27T14:57:22.088Z,2.20
2023-04-27T14:59:49.615Z,2.40
2023-04-27T15:02:17.931Z,1.93
2023-04-27T15:04:46.294Z,2.03
2023-04-27T15:07:13.795Z,1.97
2023-04-27T15:09:41.306Z,2.20
2023-04-27T15:12:09.196Z,2.00
2023-04-27T15:14:36.758Z,2.20
2023-04-27T15:17:04.331Z,2.50
2023-04-27T15:19:32.619Z,1.97
2023-04-27T15:22:00.152Z,2.13
2023-04-27T15:24:27.666Z,2.07
2023-04-27T15:26:56.289Z,2.10
2023-04-27T15:29:23.809Z,2.10
2023-04-27T15:31:52.231Z,1.87
2023-04-27T15:34:19.723Z,2.13
2023-04-27T15:36:47.247Z,1.73
2023-04-27T15:39:14.940Z,1.60
2023-04-27T15:41:42.358Z,1.83
2023-04-27T15:44:09.891Z,1.90
2023-04-27T15:46:37.453Z,1.30
2023-04-27T15:49:05.005Z,1.10
2023-04-27T15:51:33.302Z,1.30
2023-04-27T15:54:00.837Z,1.00
2023-04-27T15:56:30.764Z,1.50
2023-04-27T15:58:56.726Z,1.17
2023-04-27T16:01:24.317Z,1.50
2023-04-27T16:03:51.963Z,1.58
2023-04-27T16:06:19.390Z,1.30
2023-04-27T16:08:48.074Z,1.23
2023-04-27T16:11:15.636Z,1.20
2023-04-27T16:13:43.154Z,1.50
2023-04-27T16:16:11.495Z,1.43
2023-04-27T16:18:39.852Z,1.53
2023-04-27T16:21:07.383Z,1.53
2023-04-27T16:23:34.946Z,1.57
2023-04-27T16:26:02.532Z,2.10
2023-04-27T16:28:30.070Z,2.13
2023-04-27T16:30:57.584Z,2.03
2023-04-27T16:33:25.179Z,1.57
2023-04-27T16:35:52.714Z,1.50
2023-04-27T16:38:21.038Z,1.50
2023-04-27T16:40:48.575Z,1.50
2023-04-27T16:43:16.107Z,1.40
2023-04-27T16:45:44.456Z,1.27
2023-04-27T16:48:12.024Z,1.53
2023-04-27T16:50:39.535Z,1.77
2023-04-27T16:53:09.678Z,1.30
2023-04-27T16:55:37.253Z,1.40
2023-04-27T16:58:04.770Z,1.63
2023-04-27T17:00:32.359Z,1.60
2023-04-27T17:03:01.545Z,1.37
2023-04-27T17:05:29.014Z,1.63
2023-04-27T17:07:56.540Z,1.70
2023-04-27T17:10:24.104Z,1.37
2023-04-27T17:12:51.642Z,1.93
2023-04-27T17:15:19.919Z,1.57
2023-04-27T17:17:48.357Z,1.50
2023-04-27T17:20:15.852Z,1.50
2023-04-27T17:22:44.168Z,1.67
2023-04-27T17:25:11.854Z,1.70
2023-04-27T17:27:39.304Z,1.73
2023-04-27T17:30:08.141Z,1.70
2023-04-27T17:32:34.756Z,1.50
2023-04-27T17:35:02.270Z,1.80
2023-04-27T17:37:29.795Z,1.67
2023-04-27T17:39:57.377Z,1.57
2023-04-27T17:42:24.895Z,1.67
2023-04-27T17:44:52.451Z,1.47
2023-04-27T17:47:20.035Z,1.90
2023-04-27T17:49:47.534Z,1.60
2023-04-27T17:52:15.059Z,1.73
2023-04-27T17:54:42.626Z,1.67
2023-04-27T17:57:10.162Z,1.70
2023-04-27T17:59:37.701Z,2.20
2023-04-27T18:02:06.250Z,1.70
2023-04-27T18:04:33.924Z,1.43
2023-04-27T18:07:02.064Z,1.67
2023-04-27T18:09:30.895Z,1.70
2023-04-27T18:11:57.178Z,2.10
2023-04-27T18:14:24.707Z,1.67
2023-04-27T18:16:53.098Z,1.80
2023-04-27T18:19:20.581Z,1.60
2023-04-27T18:21:48.097Z,2.27
2023-04-27T18:24:16.444Z,1.90
2023-04-27T18:26:43.984Z,1.83
2023-04-27T18:29:11.553Z,2.47
2023-04-27T18:31:39.162Z,2.47
2023-04-27T18:34:06.625Z,2.27
2023-04-27T18:36:34.968Z,2.17
2023-04-27T18:39:02.520Z,2.37
2023-04-27T18:41:30.074Z,2.87
2023-04-27T18:43:57.628Z,2.70
2023-04-27T18:46:25.235Z,2.27
2023-04-27T18:48:52.726Z,1.80
2023-04-27T18:51:20.245Z,1.77
2023-04-27T18:53:47.852Z,2.20
2023-04-27T18:56:15.383Z,1.70
2023-04-27T18:58:43.688Z,1.90
2023-04-27T19:01:12.046Z,1.80
2023-04-27T19:03:38.897Z,1.63
2023-04-27T19:06:06.348Z,2.10
2023-04-27T19:08:33.922Z,1.70
2023-04-27T19:11:01.448Z,1.70
2023-04-27T19:13:28.991Z,1.83
2023-04-27T19:15:57.330Z,2.03
2023-04-27T19:18:24.900Z,1.70
2023-04-27T19:20:52.384Z,1.97
2023-04-27T19:23:20.752Z,1.70
2023-04-27T19:25:48.295Z,2.07
2023-04-27T19:28:21.163Z,2.00
2023-04-27T19:30:48.768Z,1.90
2023-04-27T19:33:16.800Z,1.60
2023-04-27T19:35:43.787Z,2.00
2023-04-27T19:38:12.540Z,1.60
2023-04-27T19:40:39.956Z,2.13
2023-04-27T19:43:07.492Z,1.73
2023-04-27T19:45:35.844Z,1.97
2023-04-27T19:48:03.406Z,1.60
2023-04-27T19:50:30.917Z,2.40
2023-04-27T19:52:58.566Z,2.53
2023-04-27T19:55:26.097Z,1.90
2023-04-27T19:57:54.413Z,2.10
2023-04-27T20:00:21.984Z,2.00
2023-04-27T20:02:49.661Z,2.10
2023-04-27T20:05:18.081Z,2.20
2023-04-27T20:07:45.885Z,2.20
2023-04-27T20:10:13.418Z,2.50
2023-04-27T20:12:55.344Z,2.37
2023-04-27T20:15:09.569Z,2.70
2023-04-27T20:17:37.176Z,2.73
2023-04-27T20:20:05.451Z,3.10
2023-04-27T20:22:33.372Z,2.97
2023-04-27T20:25:00.944Z,3.10
2023-04-27T20:27:29.223Z,3.00
2023-04-27T20:29:56.806Z,3.47
2023-04-27T20:32:24.345Z,3.62
2023-04-27T20:34:51.860Z,3.90
2023-04-27T20:37:20.227Z,3.03
2023-04-27T20:39:47.751Z,3.70
2023-04-27T20:42:15.296Z,5.50
2023-04-27T20:44:42.899Z,4.30
2023-04-27T20:47:10.429Z,4.03
2023-04-27T20:49:37.991Z,3.20
2023-04-27T20:52:05.552Z,2.70
2023-04-27T20:54:33.076Z,3.00
2023-04-27T20:57:03.175Z,2.70
2023-04-27T20:59:30.701Z,2.63
2023-04-27T21:01:58.308Z,3.07
2023-04-27T21:04:25.995Z,2.70
2023-04-27T21:06:53.410Z,3.10
2023-04-27T21:09:20.943Z,3.00
2023-04-27T21:11:48.502Z,3.08
2023-04-27T21:14:16.259Z,3.00
2023-04-27T21:16:43.689Z,2.60
2023-04-27T21:19:11.154Z,2.73
2023-04-27T21:21:38.719Z,3.00
2023-04-27T21:24:08.254Z,4.57
2023-04-27T21:26:33.829Z,6.80
2023-04-27T21:29:01.483Z,7.10
2023-04-27T21:31:29.127Z,5.53
2023-04-27T21:33:56.517Z,5.20
2023-04-27T21:36:24.097Z,4.67
2023-04-27T21:38:51.659Z,5.40
2023-04-27T21:41:19.231Z,7.00
2023-04-27T21:43:46.795Z,5.20
2023-04-27T21:46:14.377Z,4.50
2023-04-27T21:48:41.852Z,4.40
2023-04-27T21:51:09.420Z,4.53
2023-04-27T21:53:36.953Z,4.23
2023-04-27T21:56:04.514Z,4.30
2023-04-27T21:58:32.848Z,4.43
2023-04-27T22:01:00.365Z,4.50
2023-04-27T22:03:28.089Z,5.00
2023-04-27T22:05:55.519Z,5.17
2023-04-27T22:08:23.056Z,5.47
2023-04-27T22:10:50.622Z,6.12
2023-04-27T22:13:19.581Z,5.20
2023-04-27T22:15:45.813Z,4.73
2023-04-27T22:18:13.284Z,5.43
2023-04-27T22:20:41.145Z,5.40
2023-04-27T22:23:08.690Z,5.07
2023-04-27T22:25:36.229Z,4.87
2023-04-27T22:28:03.794Z,5.17
2023-04-27T22:30:32.135Z,5.43
2023-04-27T22:32:59.665Z,4.70
2023-04-27T22:35:28.211Z,4.73
2023-04-27T22:37:56.378Z,4.67
2023-04-27T22:40:23.866Z,4.57
2023-04-27T22:42:51.485Z,5.10
2023-04-27T22:45:19.006Z,4.67
2023-04-27T22:47:46.606Z,5.20
2023-04-27T22:50:14.131Z,4.70
2023-04-27T22:52:44.165Z,4.83
2023-04-27T22:55:11.663Z,4.40
2023-04-27T22:57:39.254Z,4.00
2023-04-27T23:00:06.884Z,4.43
2023-04-27T23:02:34.553Z,5.30
2023-04-27T23:05:02.134Z,4.23
2023-04-27T23:07:29.690Z,8.90
2023-04-27T23:09:57.212Z,7.63
2023-04-27T23:12:25.554Z,8.53
2023-04-27T23:14:53.095Z,5.90
2023-04-27T23:17:20.637Z,5.40
2023-04-27T23:19:48.812Z,5.43
2023-04-27T23:22:16.357Z,5.43
2023-04-27T23:24:43.886Z,5.00
2023-04-27T23:27:12.310Z,4.67
2023-04-27T23:29:39.845Z,4.70
2023-04-27T23:32:07.390Z,4.90
2023-04-27T23:34:35.751Z,4.83
2023-04-27T23:37:03.296Z,4.27
2023-04-27T23:39:31.039Z,4.93
2023-04-27T23:41:58.681Z,4.63
2023-04-27T23:44:26.206Z,5.07
2023-04-27T23:46:54.533Z,4.30
2023-04-27T23:49:22.113Z,4.80
2023-04-27T23:51:49.660Z,4.17
2023-04-27T23:54:17.374Z,4.55
2023-04-27T23:56:44.795Z,3.90
2023-04-27T23:59:12.331Z,4.13
